»·PEaware :: UAL431 KSAN-KTUS

UAL431 :: KSAN-KTUS

FLIGHT INFORMATION

Flight Status: Arrived
Operator:
United Airlines
More flights by this operator :: More flights under this callsign
Pilot: Anonymous 18910 (18910)
Aircraft: AIRBUS A320
(A320)
More flights by this aircraft type
Origin: KSAN San Diego Intl-Lindbergh
United States
Destination: KTUS Tucson Intl
United States
More flights between these airports :: More routes between these airports
Route: +ZZOOO2 IPL J2 GBN DINGO5
File this flight plan on PilotEdge
Remarks:
Altitude:
(Current/Filed)
32,000ft
Speed:
(Current/Filed)
350kts
Departed: 06-Oct-18 07:31 PM
Arrived: 06-Oct-18 08:27 PM
Distance/Time
Traveled:
319nm/0:56
Distance/Time
To Go:
Arrived

Flight Plot

Page will automatically refresh every two minutes.

Flight plan parsing failed; only flown route is shown


Map Options




Map Legend


Flown Route
Filed Route
Departure Airport
Arrival Airport
Navaid (VOR, NDB)
Fix

Horizontal Profiles

Position Reports

Time Latitude Longitude Heading Altitude Ground
Speed
06-Oct-18 18:58 32.732862 -117.195479 278 25ft 0kts
06-Oct-18 18:59 32.732862 -117.195479 278 25ft 0kts
06-Oct-18 19:00 32.732862 -117.195479 278 25ft 0kts
06-Oct-18 19:01 32.732862 -117.195479 278 25ft 0kts
06-Oct-18 19:02 32.732862 -117.195479 278 25ft 0kts
06-Oct-18 19:03 32.732862 -117.195479 278 25ft 0kts
06-Oct-18 19:04 32.732862 -117.195479 278 25ft 0kts
06-Oct-18 19:05 32.732862 -117.195479 278 25ft 0kts
06-Oct-18 19:06 32.732862 -117.195479 278 25ft 0kts
06-Oct-18 19:07 32.732862 -117.195479 278 25ft 0kts
06-Oct-18 19:08 32.732862 -117.195479 278 25ft 0kts
06-Oct-18 19:09 32.732862 -117.195479 278 25ft 0kts
06-Oct-18 19:10 32.732862 -117.195479 278 25ft 0kts
06-Oct-18 19:11 32.732862 -117.195479 278 25ft 0kts
06-Oct-18 19:12 32.732862 -117.195479 278 25ft 0kts
06-Oct-18 19:13 32.732862 -117.195479 278 25ft 0kts
06-Oct-18 19:14 32.732862 -117.195479 278 25ft 0kts
06-Oct-18 19:15 32.732831 -117.195237 278 24ft 2kts
06-Oct-18 19:16 32.732470 -117.194757 359 24ft 2kts
06-Oct-18 19:17 32.732232 -117.194840 29 24ft 0kts
06-Oct-18 19:18 32.732233 -117.194839 29 24ft 0kts
06-Oct-18 19:19 32.732298 -117.194795 29 24ft 0kts
06-Oct-18 19:20 32.733406 -117.193380 98 23ft 10kts
06-Oct-18 19:21 32.732636 -117.190148 106 24ft 12kts
06-Oct-18 19:22 32.731623 -117.185971 106 22ft 14kts
06-Oct-18 19:23 32.730510 -117.181393 107 20ft 19kts
06-Oct-18 19:24 32.729500 -117.177196 105 23ft 9kts
06-Oct-18 19:25 32.729512 -117.176768 73 22ft 0kts
06-Oct-18 19:26 32.729512 -117.176768 73 22ft 0kts
06-Oct-18 19:27 32.729512 -117.176768 73 22ft 0kts
06-Oct-18 19:28 32.729512 -117.176768 73 22ft 0kts
06-Oct-18 19:29 32.729512 -117.176768 73 22ft 0kts
06-Oct-18 19:30 32.729512 -117.176768 73 22ft 0kts
06-Oct-18 19:31 32.730269 -117.176160 285 25ft 0kts
06-Oct-18 19:32 32.730269 -117.176160 285 25ft 0kts
06-Oct-18 19:33 32.732877 -117.186935 286 23ft 137kts
06-Oct-18 19:34 32.747930 -117.247822 282 2055ft 225kts
06-Oct-18 19:35 32.741471 -117.317961 214 5048ft 254kts
06-Oct-18 19:36 32.673361 -117.291228 141 7858ft 306kts
06-Oct-18 19:37 32.627151 -117.207671 95 10418ft 339kts
06-Oct-18 19:38 32.616931 -117.085469 94 11553ft 406kts
06-Oct-18 19:39 32.604827 -116.949675 94 13590ft 426kts
06-Oct-18 19:40 32.622390 -116.812222 72 15502ft 434kts
06-Oct-18 19:41 32.640443 -116.668871 80 17169ft 454kts
06-Oct-18 19:42 32.654973 -116.519705 79 18830ft 466kts
06-Oct-18 19:43 32.669646 -116.367040 79 20424ft 475kts
06-Oct-18 19:44 32.684347 -116.212016 81 21764ft 485kts
06-Oct-18 19:45 32.699360 -116.051454 81 22960ft 495kts
06-Oct-18 19:46 32.714421 -115.888922 81 24044ft 505kts
06-Oct-18 19:47 32.729675 -115.722090 81 25147ft 512kts
06-Oct-18 19:48 32.744788 -115.554196 81 26131ft 519kts
06-Oct-18 19:49 32.751916 -115.382141 86 26834ft 533kts
06-Oct-18 19:50 32.755946 -115.208585 88 27908ft 532kts
06-Oct-18 19:51 32.759745 -115.034962 88 29174ft 528kts
06-Oct-18 19:52 32.763272 -114.861782 88 30340ft 525kts
06-Oct-18 19:53 32.766536 -114.690293 89 30709ft 521kts
06-Oct-18 19:54 32.769335 -114.519592 89 30732ft 521kts
06-Oct-18 19:55 32.771605 -114.348226 90 30839ft 521kts
06-Oct-18 19:56 32.773455 -114.195923 90 30838ft 522kts
06-Oct-18 19:57 32.775320 -114.023941 90 30839ft 523kts
06-Oct-18 19:58 32.792881 -113.853767 80 30839ft 523kts
06-Oct-18 19:59 32.817158 -113.683771 80 30839ft 523kts
06-Oct-18 20:00 32.841152 -113.513954 80 30871ft 522kts
06-Oct-18 20:01 32.864778 -113.345062 80 30902ft 522kts
06-Oct-18 20:02 32.887681 -113.179691 81 30903ft 522kts
06-Oct-18 20:03 32.910872 -113.010399 83 30303ft 530kts
06-Oct-18 20:04 32.934050 -112.839766 82 28835ft 527kts
06-Oct-18 20:05 32.948762 -112.669891 103 25560ft 503kts
06-Oct-18 20:06 32.900368 -112.528371 120 23920ft 443kts
06-Oct-18 20:07 32.857471 -112.417388 120 23907ft 448kts
06-Oct-18 20:08 32.797663 -112.262807 120 23906ft 447kts
06-Oct-18 20:09 32.754948 -112.152738 121 23662ft 439kts
06-Oct-18 20:10 32.704749 -112.023887 120 22731ft 425kts
06-Oct-18 20:11 32.650244 -111.884440 121 21510ft 393kts
06-Oct-18 20:12 32.612387 -111.788136 120 20104ft 386kts
06-Oct-18 20:13 32.561395 -111.658564 121 17442ft 364kts
06-Oct-18 20:14 32.517790 -111.579376 132 15260ft 340kts
06-Oct-18 20:15 32.463081 -111.492645 132 12663ft 324kts
06-Oct-18 20:16 32.410134 -111.408524 131 11993ft 326kts
06-Oct-18 20:17 32.357346 -111.324120 131 11984ft 321kts
06-Oct-18 20:18 32.305080 -111.240516 131 11213ft 316kts
06-Oct-18 20:19 32.246691 -111.168548 142 9756ft 300kts
06-Oct-18 20:20 32.186043 -111.101954 141 8175ft 297kts
06-Oct-18 20:21 32.126281 -111.036730 141 6737ft 290kts
06-Oct-18 20:22 32.066785 -110.973006 141 6031ft 292kts
06-Oct-18 20:23 32.007649 -110.910036 141 5770ft 272kts
06-Oct-18 20:24 31.971044 -110.842839 74 5444ft 245kts
06-Oct-18 20:25 32.012180 -110.810856 305 5184ft 168kts
06-Oct-18 20:26 32.040627 -110.849625 311 4205ft 143kts
06-Oct-18 20:27 32.068904 -110.883311 311 3556ft 148kts
06-Oct-18 20:28 32.097713 -110.917780 313 2752ft 146kts
06-Oct-18 20:29 32.114364 -110.937353 314 2603ft 34kts
06-Oct-18 20:30 32.118101 -110.937676 21 2603ft 8kts
06-Oct-18 20:31 32.118626 -110.937227 40 2603ft 0kts
06-Oct-18 20:32 32.118626 -110.937227 40 2603ft 0kts
06-Oct-18 20:33 32.118626 -110.937227 40 2603ft 0kts
06-Oct-18 20:34 32.118626 -110.937227 40 2603ft 0kts
06-Oct-18 20:35 32.118626 -110.937227 40 2603ft 0kts
06-Oct-18 20:36 32.118626 -110.937227 40 2603ft 0kts
06-Oct-18 20:37 32.118626 -110.937227 40 2603ft 0kts
06-Oct-18 20:38 32.118626 -110.937227 40 2603ft 0kts
06-Oct-18 20:39 32.118626 -110.937227 40 2603ft 0kts
06-Oct-18 20:40 32.118626 -110.937227 40 2603ft 0kts
06-Oct-18 20:41 32.118626 -110.937227 40 2603ft 0kts

Navigation Log

Ident Type
Flight plan parsing failed, navigation log unavailable